BERICHT 22/12/2019: De oude website is tijdelijk weer online! In 2020 zal er een volledig nieuwe site uitgerold worden, die nu volop in ontwikkeling is! Ondertussen blijven onderstaande metingen wel actueel!

Weerstation Zoersel Live Webcam Weerstation Zoersel Live Webcam


sateliet wolkenradar  


Doneren

CBI


onweer radar meer informatie blitzortung!


regen radar  rain snow radar


Enkele sfeerfotootjes...  

We konden geen weer-waarchuwingen ophalen. Ga rechtstreeks naar de Meteoalarm site : www.meteoalarm.eu en controleer daar .

metar rapporten vliegvelden

   
EBAW - Antwerp
gewijzigd: 01-12-2022 01:50
bewolking  
bewolking  
   wind: nno 11,1 km/h
wind: nno 11,1 km/h
temperatuur: 4°C
voelt als: 1°C
dauwpunt: 3°C
vochtigheid: 93%
barometer: 1027 hPa
bewolking: bewolking
zicht: 5 km
bewolking: grotendeels bewolkt 500 ft,
bewolking 600 ft
EBAW 010050Z AUTO 03006KT 350V060 5000 // BKN005/// OVC006/// 04/03 Q1027
EBLG - Li├Ęge
gewijzigd: 01-12-2022 01:50
nevel, grotendeels bewolkt  
nevel, grotendeels bewolkt  
   wind: nno 9,3 km/h
wind: nno 9,3 km/h
temperatuur: 5°C
voelt als: 3°C
dauwpunt: 4°C
vochtigheid: 93%
barometer: 1025 hPa
bewolking: grotendeels bewolkt
zicht: 3 km
bewolking: gedeeltelijk bewolkt 200 ft,
grotendeels bewolkt 300 ft
EBLG 010050Z 02005KT 3200 BR SCT002 BKN003 05/04 Q1025 TEMPO 0800 FG -DZ BKN001
EBCV - Mons/Bergen
gewijzigd: 01-12-2022 01:55
nevel, grotendeels bewolkt  
nevel, grotendeels bewolkt  
   wind: noorden 9,3 km/h
wind: noorden 9,3 km/h
temperatuur: 3°C
voelt als: 1°C
dauwpunt: 3°C
vochtigheid: 100%
barometer: 1026 hPa
bewolking: grotendeels bewolkt
zicht: 2 km
bewolking: grotendeels bewolkt 200 ft
EBCV 010055Z AUTO 01005KT 1700 BR BKN002/// 03/03 Q1026 AMB
EHBK - Maastricht
gewijzigd: 01-12-2022 01:55
bewolking  
bewolking  
   wind: no 14,8 km/h
wind: no 14,8 km/h
temperatuur: 5°C
voelt als: 2°C
dauwpunt: 5°C
vochtigheid: 100%
barometer: 1025 hPa
bewolking: bewolking
zicht: 5 km
bewolking: licht bewolkt 200 ft,
grotendeels bewolkt 400 ft,
bewolking 500 ft
EHBK 010055Z AUTO 04008KT 5000 FEW002 BKN004 OVC005 05/05 Q1025
ELLX - Luxemburg
gewijzigd: 01-12-2022 01:50
bewolking  
bewolking  
   wind: nno 18,5 km/h
wind: nno 18,5 km/h
temperatuur: 5°C
voelt als: 1°C
dauwpunt: 3°C
vochtigheid: 87%
barometer: 1023 hPa
bewolking: bewolking
zicht: meer dan 10 km
bewolking: bewolking 3300 ft
ELLX 010050Z AUTO 02010KT 9999 OVC033/// 05/03 Q1023 NOSIG
EBOS - Oostende
gewijzigd: 01-12-2022 01:50
nevel, gedeeltelijk bewolkt  
nevel, gedeeltelijk bewolkt  
   wind: no 7,4 km/h
wind: no 7,4 km/h
temperatuur: 2°C
voelt als: 0°C
dauwpunt: 2°C
vochtigheid: 100%
barometer: 1028 hPa
bewolking: gedeeltelijk bewolkt
zicht: 3 km
bewolking: gedeeltelijk bewolkt
EBOS 010050Z 05004KT 3200 BR NSC 02/02 Q1028 NOSIG

script ontwikkeld door  Saratoga-weather.org aangepast voor de template door  Weerstation Leuven